createdAt,value
2023-04-03T05:22:33.656Z,67.64
2023-04-03T05:27:35.976Z,67.28
2023-04-03T05:32:38.150Z,67.22
2023-04-03T05:37:40.462Z,67.23
2023-04-03T05:42:42.549Z,67.09
2023-04-03T05:47:44.637Z,67.00
2023-04-03T05:52:50.072Z,66.83
2023-04-03T05:57:52.211Z,66.89
2023-04-03T06:02:54.357Z,66.46
2023-04-03T06:07:58.001Z,66.33
2023-04-03T06:13:00.180Z,66.34
2023-04-03T06:18:02.383Z,66.21
2023-04-03T06:23:05.148Z,66.05
2023-04-03T06:28:11.060Z,65.35
2023-04-03T06:33:13.157Z,65.20
2023-04-03T06:38:15.316Z,64.31
2023-04-03T06:43:17.369Z,63.14
2023-04-03T06:48:19.454Z,61.17
2023-04-03T06:53:21.661Z,60.75
2023-04-03T06:58:23.707Z,56.33
2023-04-03T07:03:25.854Z,53.42
2023-04-03T07:08:28.031Z,50.81
2023-04-03T07:13:30.074Z,51.01
2023-04-03T07:18:33.088Z,51.67
2023-04-03T07:23:35.299Z,52.19
2023-04-03T07:28:37.773Z,51.60
2023-04-03T07:33:41.386Z,51.91
2023-04-03T07:38:43.487Z,51.43
2023-04-03T07:43:46.283Z,51.34
2023-04-03T07:48:48.422Z,50.24
2023-04-03T07:53:50.531Z,50.41
2023-04-03T07:58:52.693Z,48.81
2023-04-03T08:03:54.976Z,48.61
2023-04-03T08:08:57.186Z,48.25
2023-04-03T08:13:59.346Z,47.30
2023-04-03T08:19:02.579Z,45.61
2023-04-03T08:24:05.114Z,44.16
2023-04-03T08:29:07.200Z,42.88
2023-04-03T08:34:09.764Z,42.00
2023-04-03T08:39:12.159Z,42.80
2023-04-03T08:44:47.401Z,43.28
2023-04-03T08:49:57.225Z,42.14
2023-04-03T08:55:02.858Z,42.06
2023-04-03T09:00:17.129Z,41.54
2023-04-03T09:05:38.796Z,41.18
2023-04-03T09:10:42.703Z,40.08
2023-04-03T09:15:45.699Z,39.66
2023-04-03T09:21:04.631Z,39.87
2023-04-03T09:26:14.020Z,39.81
2023-04-03T09:31:21.493Z,37.59
2023-04-03T09:36:57.698Z,39.08
2023-04-03T09:42:06.618Z,38.88
2023-04-03T09:47:25.057Z,38.43
2023-04-03T09:52:27.568Z,38.56
2023-04-03T09:57:34.223Z,38.00
2023-04-03T10:02:41.203Z,38.53
2023-04-03T10:07:48.700Z,40.62
2023-04-03T10:13:21.351Z,40.72
2023-04-03T10:18:33.684Z,40.83
2023-04-03T10:23:52.185Z,40.58
2023-04-03T10:29:04.275Z,41.73
2023-04-03T10:34:15.092Z,41.42
2023-04-03T10:39:29.496Z,40.87
2023-04-03T10:44:52.525Z,39.76
2023-04-03T10:50:12.162Z,40.38
2023-04-03T10:55:14.224Z,41.31
2023-04-03T11:00:23.470Z,41.38
2023-04-03T11:05:44.976Z,41.68
2023-04-03T11:10:51.117Z,39.54
2023-04-03T11:15:55.361Z,39.94
2023-04-03T11:21:25.615Z,39.36
2023-04-03T11:26:34.893Z,39.43
2023-04-03T11:32:08.158Z,40.04
2023-04-03T11:37:55.753Z,39.46
2023-04-03T11:43:01.087Z,38.81
2023-04-03T11:48:21.190Z,39.76
2023-04-03T11:53:28.833Z,39.81
2023-04-03T11:58:35.209Z,40.92
2023-04-03T12:03:40.721Z,40.63
2023-04-03T12:08:46.137Z,40.55
2023-04-03T12:13:51.216Z,41.17
2023-04-03T12:18:53.438Z,41.67
2023-04-03T12:24:02.229Z,42.36
2023-04-03T12:29:24.672Z,42.16
2023-04-03T12:35:01.034Z,41.45
2023-04-03T12:40:19.597Z,42.95
2023-04-03T12:45:26.011Z,41.11
2023-04-03T12:50:35.001Z,40.53
2023-04-03T12:55:37.368Z,43.32
2023-04-03T13:00:40.693Z,41.97
2023-04-03T13:05:45.624Z,41.49
2023-04-03T13:10:56.503Z,40.32
2023-04-03T13:15:59.649Z,40.42
2023-04-03T13:21:18.001Z,39.14
2023-04-03T13:26:22.864Z,38.91
2023-04-03T13:31:29.269Z,38.37
2023-04-03T13:36:47.045Z,39.18
2023-04-03T13:41:57.464Z,38.34
2023-04-03T13:47:21.646Z,38.33
2023-04-03T13:52:55.243Z,38.15
2023-04-03T13:58:04.258Z,38.08
2023-04-03T14:03:44.847Z,37.10
2023-04-03T14:08:48.004Z,35.87
2023-04-03T14:13:51.348Z,35.37
2023-04-03T14:18:53.990Z,36.04
2023-04-03T14:23:56.112Z,36.63
2023-04-03T14:28:58.162Z,36.55
2023-04-03T14:34:00.346Z,37.29
2023-04-03T14:39:03.166Z,37.50
2023-04-03T14:44:14.926Z,38.75
2023-04-03T14:49:21.543Z,36.69
2023-04-03T14:54:28.902Z,37.55
2023-04-03T14:59:32.605Z,37.95
2023-04-03T15:04:34.817Z,39.10
2023-04-03T15:09:38.042Z,39.28
2023-04-03T15:19:45.468Z,39.75
2023-04-03T15:24:47.698Z,40.34
2023-04-03T15:29:49.839Z,39.60
2023-04-03T15:34:54.984Z,39.75
2023-04-03T15:39:59.976Z,40.94
2023-04-03T15:45:02.505Z,41.58
2023-04-03T15:50:07.794Z,41.32
2023-04-03T15:55:10.518Z,41.61
2023-04-03T16:00:13.377Z,41.84
2023-04-03T16:05:18.260Z,42.53
2023-04-03T16:10:20.772Z,43.04
2023-04-03T16:15:23.818Z,41.46
2023-04-03T16:20:27.001Z,41.26
2023-04-03T16:25:29.170Z,41.20
2023-04-03T16:30:31.341Z,40.56
2023-04-03T16:35:33.488Z,41.45
2023-04-03T16:40:35.869Z,41.60
2023-04-03T16:45:38.266Z,41.44
2023-04-03T16:50:40.744Z,41.62
2023-04-03T16:55:43.000Z,42.19
2023-04-03T17:00:45.159Z,41.52
2023-04-03T17:05:50.627Z,41.43
2023-04-03T17:10:54.649Z,41.63
2023-04-03T17:15:56.868Z,41.54
2023-04-03T17:20:59.390Z,41.98
2023-04-03T17:26:03.044Z,41.68
2023-04-03T17:31:05.353Z,41.78
2023-04-03T17:36:08.152Z,42.12
2023-04-03T17:41:10.563Z,41.73
2023-04-03T17:46:12.766Z,42.24
2023-04-03T17:51:17.969Z,42.27
2023-04-03T17:56:23.135Z,42.26
2023-04-03T18:01:31.024Z,42.13
2023-04-03T18:06:39.888Z,41.71
2023-04-03T18:11:43.530Z,41.78
2023-04-03T18:16:46.279Z,41.21
2023-04-03T18:21:48.578Z,41.56
2023-04-03T18:26:56.973Z,42.04
2023-04-03T18:32:02.084Z,42.58
2023-04-03T18:37:05.933Z,42.20
2023-04-03T18:42:16.986Z,42.77
2023-04-03T18:47:19.412Z,41.88
2023-04-03T18:52:22.149Z,41.81
2023-04-03T18:57:26.544Z,42.06
2023-04-03T19:02:29.751Z,40.78
2023-04-03T19:07:32.112Z,40.87
2023-04-03T19:12:35.355Z,39.79
2023-04-03T19:17:37.469Z,39.53
2023-04-03T19:22:40.106Z,39.31
2023-04-03T19:27:42.177Z,38.80
2023-04-03T19:32:44.433Z,38.23
2023-04-03T19:37:50.779Z,38.39
2023-04-03T19:42:52.905Z,38.50
2023-04-03T19:47:55.168Z,38.46
2023-04-03T19:52:57.503Z,38.92
2023-04-03T19:58:00.682Z,38.88
2023-04-03T20:03:02.877Z,38.81
2023-04-03T20:08:05.489Z,39.38
2023-04-03T20:13:12.231Z,39.45
2023-04-03T20:18:19.596Z,39.38
2023-04-03T20:23:22.157Z,39.78
2023-04-03T20:28:24.858Z,40.46
2023-04-03T20:33:27.002Z,40.16
2023-04-03T20:38:29.184Z,40.51
2023-04-03T20:43:31.382Z,40.71
2023-04-03T20:48:33.461Z,40.16
2023-04-03T20:53:36.641Z,40.42
2023-04-03T20:58:43.671Z,40.25
2023-04-03T21:03:46.716Z,40.58
2023-04-03T21:09:27.338Z,40.50
2023-04-03T21:15:06.800Z,40.35
2023-04-03T21:20:09.100Z,40.06
2023-04-03T21:25:11.632Z,40.21
2023-04-03T21:30:15.584Z,39.88
2023-04-03T21:35:17.689Z,39.58
2023-04-03T21:40:19.840Z,39.77
2023-04-03T21:45:22.711Z,40.44
2023-04-03T21:50:24.796Z,40.07
2023-04-03T21:55:27.323Z,40.55
2023-04-03T22:00:29.523Z,40.77
2023-04-03T22:05:32.241Z,40.98
2023-04-03T22:10:34.395Z,40.76
2023-04-03T22:15:42.852Z,40.65
2023-04-03T22:20:45.116Z,40.86
2023-04-03T22:26:05.832Z,41.32
2023-04-03T22:31:09.543Z,41.18
2023-04-03T22:36:13.411Z,41.92
2023-04-03T22:41:15.475Z,41.54
2023-04-03T22:46:17.636Z,41.90
2023-04-03T22:51:19.744Z,42.56
2023-04-03T22:56:24.618Z,42.54
2023-04-03T23:01:29.325Z,42.44
2023-04-03T23:06:31.733Z,43.30
2023-04-03T23:11:33.799Z,43.18
2023-04-03T23:16:35.955Z,42.82
2023-04-03T23:21:38.102Z,43.15
2023-04-03T23:26:40.322Z,43.12
2023-04-03T23:31:42.390Z,43.23
2023-04-03T23:36:44.465Z,43.57
2023-04-03T23:41:47.725Z,44.79
2023-04-03T23:46:50.979Z,44.85
2023-04-03T23:51:54.241Z,45.25
2023-04-03T23:56:56.601Z,45.28
